createdAt,value
2019-06-08T00:07:27.512Z,969.8
2019-06-08T00:17:39.647Z,970.1
2019-06-08T00:27:43.075Z,970.1
2019-06-08T00:37:46.512Z,970.4
2019-06-08T00:47:50.036Z,970.6
2019-06-08T00:57:53.486Z,970.6
2019-06-08T01:07:56.923Z,970.8
2019-06-08T01:18:04.677Z,971.2
2019-06-08T01:28:08.134Z,971.1
2019-06-08T01:38:11.607Z,970.9
2019-06-08T01:48:22.524Z,971.1
2019-06-08T01:58:27.321Z,971.2
2019-06-08T02:08:30.980Z,971.2
2019-06-08T02:18:51.544Z,971.3
2019-06-08T02:28:54.952Z,971.6
2019-06-08T02:38:58.457Z,971.5
2019-06-08T02:49:05.475Z,971.4
2019-06-08T02:59:08.937Z,971.7
2019-06-08T03:09:12.410Z,972
2019-06-08T03:19:23.431Z,971.9
2019-06-08T03:29:26.860Z,971.9
2019-06-08T03:39:30.315Z,972
2019-06-08T03:49:58.031Z,972
2019-06-08T04:00:01.513Z,972.2
2019-06-08T04:10:04.958Z,972.3
2019-06-08T04:20:12.898Z,972.2
2019-06-08T04:30:16.405Z,972.2
2019-06-08T04:40:19.877Z,972.1
2019-06-08T04:50:24.731Z,972.4
2019-06-08T05:00:31.841Z,972.6
2019-06-08T05:10:35.307Z,972.2
2019-06-08T05:20:49.698Z,972
2019-06-08T05:30:54.583Z,972.1
2019-06-08T05:40:58.040Z,972.3
2019-06-08T05:51:04.918Z,972.1
2019-06-08T06:01:08.376Z,972.2
2019-06-08T06:11:11.847Z,971.9
2019-06-08T06:21:15.303Z,971.5
2019-06-08T06:31:18.762Z,969.7
2019-06-08T06:41:22.232Z,968.9
2019-06-08T06:51:27.220Z,968.4
2019-06-08T07:01:30.712Z,974.8
2019-06-08T07:11:34.187Z,974.4
2019-06-08T07:21:42.549Z,974.1
2019-06-08T07:31:53.341Z,974.2
2019-06-08T07:41:56.890Z,973.6
2019-06-08T07:52:11.345Z,973.5
2019-06-08T08:02:14.791Z,973.4
2019-06-08T08:12:18.280Z,973
2019-06-08T08:22:29.959Z,972.6
2019-06-08T08:32:33.455Z,972.6
2019-06-08T08:42:39.351Z,972.3
2019-06-08T08:52:42.818Z,972.3
2019-06-08T09:02:48.861Z,972.1
2019-06-08T09:13:04.815Z,972.5
2019-06-08T09:23:22.253Z,972.2
2019-06-08T09:33:25.748Z,972.1
2019-06-08T09:43:29.432Z,971.1
2019-06-08T09:53:42.138Z,971.3
2019-06-08T10:03:48.576Z,970.2
2019-06-08T10:13:52.055Z,970.8
2019-06-08T10:24:09.212Z,970.5
2019-06-08T10:34:12.907Z,970.1
2019-06-08T10:44:18.822Z,970
2019-06-08T10:54:22.277Z,969.6
2019-06-08T11:04:28.802Z,970.5
2019-06-08T11:14:32.270Z,969.6
2019-06-08T11:24:38.903Z,968.7
2019-06-08T11:34:42.451Z,968.8
2019-06-08T11:44:51.797Z,968.6
2019-06-08T11:55:05.753Z,969.4
2019-06-08T12:05:14.558Z,969.2
2019-06-08T12:15:21.562Z,968.8
2019-06-08T12:25:24.991Z,968.8
2019-06-08T12:35:28.712Z,968.7
2019-06-08T12:45:32.158Z,968.1
2019-06-08T12:55:38.038Z,968.6
2019-06-08T13:05:41.487Z,968.5
2019-06-08T13:15:44.950Z,968.3
2019-06-08T13:25:48.637Z,968.8
2019-06-08T13:35:52.087Z,968.3
2019-06-08T13:45:58.720Z,968.3
2019-06-08T13:56:02.186Z,968.5
2019-06-08T14:06:08.040Z,968.9
2019-06-08T14:16:12.048Z,968.8
2019-06-08T14:26:15.477Z,968.4
2019-06-08T14:36:28.656Z,968.8
2019-06-08T14:46:32.181Z,968.9
2019-06-08T14:56:37.815Z,969.3
2019-06-08T15:06:41.303Z,969.1
2019-06-08T15:16:44.787Z,968.8
2019-06-08T15:26:49.305Z,968.8
2019-06-08T15:36:52.780Z,969
2019-06-08T15:46:58.876Z,969
2019-06-08T15:57:02.352Z,968.9
2019-06-08T16:07:06.403Z,969.3
2019-06-08T16:17:09.924Z,969.2
2019-06-08T16:27:13.339Z,969.4
2019-06-08T16:37:16.893Z,969.4
2019-06-08T16:57:29.201Z,969.8
2019-06-08T17:07:33.962Z,970
2019-06-08T17:17:38.880Z,970.3
2019-06-08T17:27:42.346Z,970.5
2019-06-08T17:37:45.816Z,970.4
2019-06-08T17:47:49.308Z,970.6
2019-06-08T17:57:54.107Z,970.7
2019-06-08T18:07:58.260Z,970.9
2019-06-08T18:18:01.718Z,971
2019-06-08T18:28:13.900Z,970.8
2019-06-08T18:38:18.302Z,971.1
2019-06-08T18:48:21.740Z,971.4
2019-06-08T18:58:28.222Z,972.1
2019-06-08T19:08:31.682Z,972.3
2019-06-08T19:18:37.414Z,972.8
2019-06-08T19:28:54.535Z,973.1
2019-06-08T19:38:58.131Z,966.6
2019-06-08T19:49:01.599Z,966.3
2019-06-08T19:59:08.828Z,966.5
2019-06-08T20:09:12.246Z,966.9
2019-06-08T20:19:17.964Z,966.9
2019-06-08T20:29:21.409Z,967.3
2019-06-08T20:39:27.481Z,967.7
2019-06-08T20:49:30.885Z,968.4
2019-06-08T20:59:40.070Z,968.4
2019-06-08T21:09:54.041Z,968.7
2019-06-08T21:19:58.478Z,969
2019-06-08T21:30:25.066Z,968.7
2019-06-08T21:40:28.599Z,969.3
2019-06-08T21:50:32.067Z,969.6
2019-06-08T22:00:43.850Z,969.7
2019-06-08T22:10:47.500Z,969.7
2019-06-08T22:20:53.448Z,970.1
2019-06-08T22:31:02.031Z,970.1
2019-06-08T22:41:08.364Z,970.8
2019-06-08T22:51:11.801Z,970.6
2019-06-08T23:01:15.246Z,970.9
2019-06-08T23:11:18.644Z,971.1
2019-06-08T23:21:22.102Z,971
2019-06-08T23:31:29.477Z,971.2
2019-06-08T23:41:32.942Z,971.1
2019-06-08T23:51:38.426Z,971.7
